createdAt,value
2023-04-02T00:01:39.255Z,68.83
2023-04-02T00:04:16.378Z,68.62
2023-04-02T00:06:47.392Z,68.53
2023-04-02T00:09:25.423Z,68.40
2023-04-02T00:11:55.799Z,69.08
2023-04-02T00:14:27.495Z,68.57
2023-04-02T00:16:56.918Z,68.92
2023-04-02T00:19:30.843Z,68.70
2023-04-02T00:22:00.009Z,68.43
2023-04-02T00:24:27.741Z,68.91
2023-04-02T00:26:56.520Z,68.22
2023-04-02T00:29:25.594Z,68.28
2023-04-02T00:31:54.910Z,68.35
2023-04-02T00:34:24.988Z,68.33
2023-04-02T00:36:54.341Z,68.34
2023-04-02T00:39:25.269Z,68.48
2023-04-02T00:41:58.706Z,68.14
2023-04-02T00:44:32.780Z,67.92
2023-04-02T00:47:09.110Z,68.12
2023-04-02T00:49:39.214Z,68.19
2023-04-02T00:52:10.514Z,68.03
2023-04-02T00:54:43.586Z,67.84
2023-04-02T00:57:17.936Z,68.06
2023-04-02T00:59:57.177Z,68.13
2023-04-02T01:02:31.635Z,67.96
2023-04-02T01:05:02.261Z,68.10
2023-04-02T01:07:48.931Z,67.59
2023-04-02T01:10:30.619Z,68.03
2023-04-02T01:13:09.981Z,67.47
2023-04-02T01:15:45.214Z,67.50
2023-04-02T01:18:26.772Z,67.84
2023-04-02T01:21:25.392Z,67.46
2023-04-02T01:24:01.673Z,68.13
2023-04-02T01:26:46.918Z,67.68
2023-04-02T01:29:17.740Z,67.53
2023-04-02T01:31:48.045Z,67.48
2023-04-02T01:34:18.697Z,67.62
2023-04-02T01:36:59.342Z,67.25
2023-04-02T01:39:46.122Z,67.61
2023-04-02T01:42:21.086Z,67.19
2023-04-02T01:44:52.705Z,67.08
2023-04-02T01:47:24.500Z,66.96
2023-04-02T01:49:57.901Z,67.26
2023-04-02T01:52:35.673Z,67.24
2023-04-02T01:55:04.558Z,67.23
2023-04-02T01:57:32.518Z,66.97
2023-04-02T02:00:07.600Z,67.29
2023-04-02T02:02:35.883Z,67.15
2023-04-02T02:05:04.253Z,67.01
2023-04-02T02:07:32.268Z,66.72
2023-04-02T02:10:00.291Z,66.89
2023-04-02T02:12:28.028Z,67.20
2023-04-02T02:14:55.779Z,66.64
2023-04-02T02:17:29.394Z,66.52
2023-04-02T02:20:00.444Z,66.52
2023-04-02T02:22:31.484Z,67.00
2023-04-02T02:25:01.769Z,66.71
2023-04-02T02:28:04.019Z,66.81
2023-04-02T02:30:36.234Z,66.61
2023-04-02T02:33:10.047Z,66.79
2023-04-02T02:35:44.228Z,66.83
2023-04-02T02:38:30.392Z,66.61
2023-04-02T02:41:03.042Z,66.76
2023-04-02T02:43:31.283Z,66.56
2023-04-02T02:45:59.671Z,66.74
2023-04-02T02:48:37.180Z,66.81
2023-04-02T02:51:10.189Z,66.18
2023-04-02T02:53:47.575Z,66.33
2023-04-02T02:56:15.815Z,66.03
2023-04-02T02:58:44.366Z,65.93
2023-04-02T03:01:13.072Z,66.75
2023-04-02T03:03:42.251Z,66.10
2023-04-02T03:06:12.038Z,66.42
2023-04-02T03:08:43.551Z,66.02
2023-04-02T03:11:17.081Z,66.59
2023-04-02T03:13:49.826Z,65.92
2023-04-02T03:16:22.462Z,66.34
2023-04-02T03:18:57.799Z,65.98
2023-04-02T03:21:32.605Z,65.89
2023-04-02T03:24:04.393Z,66.19
2023-04-02T03:26:36.765Z,66.35
2023-04-02T03:29:12.478Z,65.94
2023-04-02T03:31:45.343Z,65.89
2023-04-02T03:34:21.648Z,65.55
2023-04-02T03:36:57.913Z,65.23
2023-04-02T03:39:32.439Z,65.10
2023-04-02T03:42:05.519Z,65.24
2023-04-02T03:44:39.443Z,65.72
2023-04-02T03:47:16.452Z,65.37
2023-04-02T03:49:50.853Z,65.12
2023-04-02T03:52:24.223Z,65.09
2023-04-02T03:54:53.637Z,65.50
2023-04-02T03:57:29.874Z,64.99
2023-04-02T04:00:02.253Z,65.31
2023-04-02T04:02:41.185Z,65.04
2023-04-02T04:05:24.067Z,65.44
2023-04-02T04:07:54.421Z,65.14
2023-04-02T04:10:25.980Z,65.32
2023-04-02T04:12:56.978Z,65.46
2023-04-02T04:15:31.926Z,65.88
2023-04-02T04:18:04.371Z,65.29
2023-04-02T04:20:41.399Z,65.17
2023-04-02T04:23:11.836Z,65.11
2023-04-02T04:25:40.133Z,64.83
2023-04-02T04:28:18.489Z,65.44
2023-04-02T04:30:51.803Z,64.99
2023-04-02T04:33:23.390Z,65.60
2023-04-02T04:35:56.733Z,65.28
2023-04-02T04:38:32.920Z,65.30
2023-04-02T04:41:05.024Z,64.74
2023-04-02T04:43:43.628Z,64.83
2023-04-02T04:46:14.722Z,65.48
2023-04-02T04:48:51.803Z,65.09
2023-04-02T04:51:25.794Z,64.89
2023-04-02T04:53:55.976Z,64.57
2023-04-02T04:56:27.483Z,64.33
2023-04-02T04:59:01.637Z,64.93
2023-04-02T05:01:36.442Z,64.75
2023-04-02T05:04:13.105Z,65.29
2023-04-02T05:06:46.130Z,64.96
2023-04-02T05:09:21.823Z,64.75
2023-04-02T05:11:56.573Z,64.91
2023-04-02T05:14:30.995Z,64.37
2023-04-02T05:17:05.592Z,64.93
2023-04-02T05:19:40.240Z,64.21
2023-04-02T05:22:21.205Z,64.23
2023-04-02T05:24:58.000Z,64.62
2023-04-02T05:27:29.607Z,64.40
2023-04-02T05:30:03.912Z,64.05
2023-04-02T05:32:34.336Z,64.52
2023-04-02T05:35:05.755Z,64.17
2023-04-02T05:37:35.481Z,64.16
2023-04-02T05:40:11.994Z,64.23
2023-04-02T05:42:42.243Z,64.22
2023-04-02T05:45:20.894Z,63.62
2023-04-02T05:47:52.826Z,64.14
2023-04-02T05:50:26.326Z,64.40
2023-04-02T05:52:59.857Z,63.61
2023-04-02T05:55:37.506Z,63.40
2023-04-02T05:58:31.870Z,63.06
2023-04-02T06:01:07.762Z,63.54
2023-04-02T06:03:46.021Z,63.40
2023-04-02T06:06:21.123Z,62.93
2023-04-02T06:08:59.588Z,63.17
2023-04-02T06:11:32.572Z,63.44
2023-04-02T06:14:01.185Z,62.99
2023-04-02T06:16:32.023Z,62.22
2023-04-02T06:19:00.027Z,63.08
2023-04-02T06:21:28.185Z,63.29
2023-04-02T06:24:01.528Z,63.12
2023-04-02T06:26:35.018Z,63.33
2023-04-02T06:29:08.267Z,62.77
2023-04-02T06:31:41.700Z,62.87
2023-04-02T06:34:16.819Z,62.49
2023-04-02T06:36:45.776Z,62.71
2023-04-02T06:39:19.632Z,62.60
2023-04-02T06:41:47.749Z,62.18
2023-04-02T06:44:19.609Z,62.69
2023-04-02T06:46:52.445Z,62.89
2023-04-02T06:49:27.189Z,62.76
2023-04-02T06:51:56.388Z,62.43
2023-04-02T06:54:25.511Z,62.21
2023-04-02T06:56:56.278Z,63.00
2023-04-02T06:59:24.502Z,62.00
2023-04-02T07:01:54.698Z,60.88
2023-04-02T07:04:23.146Z,60.33
2023-04-02T07:06:51.215Z,60.51
2023-04-02T07:09:18.994Z,58.92
2023-04-02T07:11:48.038Z,58.63
2023-04-02T07:14:16.015Z,59.95
2023-04-02T07:16:45.118Z,59.39
2023-04-02T07:19:18.665Z,59.68
2023-04-02T07:21:46.449Z,59.68
2023-04-02T07:24:14.595Z,59.80
2023-04-02T07:26:42.466Z,60.23
2023-04-02T07:29:16.732Z,60.37
2023-04-02T07:31:44.941Z,59.92
2023-04-02T07:34:12.911Z,60.55
2023-04-02T07:36:40.712Z,59.63
2023-04-02T07:39:08.493Z,59.13
2023-04-02T07:41:52.397Z,61.13
2023-04-02T07:44:21.587Z,61.05
2023-04-02T07:46:49.335Z,61.25
2023-04-02T07:49:17.145Z,60.51
2023-04-02T07:51:44.852Z,60.61
2023-04-02T07:54:13.061Z,60.61
2023-04-02T07:56:41.250Z,60.10
2023-04-02T07:59:09.202Z,60.27
2023-04-02T08:01:38.311Z,60.38
2023-04-02T08:04:07.778Z,60.22
2023-04-02T08:06:35.611Z,60.06
2023-04-02T08:09:03.713Z,60.44
2023-04-02T08:11:31.920Z,60.39
2023-04-02T08:13:59.773Z,60.79
2023-04-02T08:16:27.861Z,60.27
2023-04-02T08:18:57.158Z,59.82
2023-04-02T08:21:25.398Z,60.60
2023-04-02T08:23:53.104Z,60.19
2023-04-02T08:26:21.014Z,60.47
2023-04-02T08:28:48.755Z,60.62
2023-04-02T08:31:17.219Z,60.42
2023-04-02T08:33:45.042Z,59.82
2023-04-02T08:36:17.884Z,59.95
2023-04-02T08:38:46.171Z,59.60
2023-04-02T08:41:23.169Z,60.32
2023-04-02T08:43:55.521Z,60.30
2023-04-02T08:46:31.700Z,60.02
2023-04-02T08:49:03.681Z,60.13
2023-04-02T08:51:35.694Z,59.98
2023-04-02T08:54:09.381Z,59.95
2023-04-02T08:56:41.981Z,59.40
2023-04-02T08:59:20.699Z,60.08
2023-04-02T09:01:56.726Z,60.13
2023-04-02T09:04:26.528Z,60.46
2023-04-02T09:06:57.938Z,59.65
2023-04-02T09:09:26.543Z,59.43
2023-04-02T09:11:59.005Z,59.69
2023-04-02T09:14:32.799Z,60.18
2023-04-02T09:17:03.738Z,60.44
2023-04-02T09:19:36.539Z,59.68
2023-04-02T09:22:10.323Z,59.68
2023-04-02T09:24:38.679Z,60.53
2023-04-02T09:27:19.561Z,59.79
2023-04-02T09:29:49.341Z,59.92
2023-04-02T09:32:43.668Z,59.43
2023-04-02T09:35:25.516Z,58.54
2023-04-02T09:38:31.660Z,57.93
2023-04-02T09:41:02.358Z,57.83
2023-04-02T09:43:32.275Z,57.88
2023-04-02T09:46:02.371Z,57.83
2023-04-02T09:48:33.643Z,57.86
2023-04-02T09:51:21.342Z,57.86
2023-04-02T09:53:52.375Z,58.59
2023-04-02T09:56:23.202Z,58.03
2023-04-02T09:59:05.783Z,58.77
2023-04-02T10:01:36.228Z,59.41
2023-04-02T10:04:06.764Z,58.18
2023-04-02T10:06:35.592Z,58.43
2023-04-02T10:09:28.839Z,58.16
2023-04-02T10:11:57.286Z,59.76
2023-04-02T10:14:29.642Z,58.68
2023-04-02T10:17:00.874Z,58.23
2023-04-02T10:19:33.495Z,58.95
2023-04-02T10:22:05.183Z,58.86
2023-04-02T10:24:34.244Z,58.73
2023-04-02T10:27:17.388Z,59.43
2023-04-02T10:30:11.151Z,58.77
2023-04-02T10:32:44.002Z,58.41
2023-04-02T10:35:23.278Z,59.13
2023-04-02T10:38:21.347Z,58.90
2023-04-02T10:40:56.949Z,58.00
2023-04-02T10:43:48.811Z,58.32
2023-04-02T10:46:25.495Z,56.73
2023-04-02T10:48:56.489Z,56.00
2023-04-02T10:51:34.220Z,55.53
2023-04-02T10:54:12.719Z,55.41
2023-04-02T10:56:51.047Z,55.60
2023-04-02T10:59:23.638Z,56.42
2023-04-02T11:01:54.621Z,56.74
2023-04-02T11:04:28.119Z,56.79
2023-04-02T11:07:11.230Z,57.42
2023-04-02T11:09:44.772Z,56.93
2023-04-02T11:12:24.526Z,57.40
2023-04-02T11:14:55.230Z,57.58
2023-04-02T11:17:25.526Z,57.51
2023-04-02T11:19:54.061Z,57.81
2023-04-02T11:22:23.045Z,58.00
2023-04-02T11:24:52.254Z,57.65
2023-04-02T11:27:27.310Z,58.27
2023-04-02T11:30:03.902Z,57.48
2023-04-02T11:32:42.642Z,57.25
2023-04-02T11:35:37.110Z,56.69
2023-04-02T11:38:43.536Z,57.28
2023-04-02T11:41:12.900Z,56.19
2023-04-02T11:44:00.648Z,57.18
2023-04-02T11:46:46.806Z,56.92
2023-04-02T11:49:37.804Z,56.51
2023-04-02T11:52:20.696Z,55.90
2023-04-02T11:54:57.620Z,57.11
2023-04-02T11:57:33.375Z,56.97
2023-04-02T12:00:20.208Z,56.69
2023-04-02T12:03:04.375Z,57.31
2023-04-02T12:05:39.386Z,57.57
2023-04-02T12:08:25.239Z,56.94
2023-04-02T12:10:57.056Z,57.77
2023-04-02T12:13:54.570Z,57.26
2023-04-02T12:16:24.234Z,57.57
2023-04-02T12:18:55.006Z,57.66
2023-04-02T12:21:25.109Z,56.56
2023-04-02T12:23:55.406Z,55.59
2023-04-02T12:26:32.008Z,55.22
2023-04-02T12:29:26.661Z,54.30
2023-04-02T12:31:54.963Z,54.33
2023-04-02T12:34:24.967Z,54.70
2023-04-02T12:36:59.594Z,54.08
2023-04-02T12:39:28.544Z,54.69
2023-04-02T12:41:56.923Z,55.21
2023-04-02T12:44:28.260Z,55.82
2023-04-02T12:46:57.157Z,56.36
2023-04-02T12:49:39.649Z,56.65
2023-04-02T12:52:09.997Z,56.52
2023-04-02T12:54:44.711Z,56.63
2023-04-02T12:57:34.531Z,57.39
2023-04-02T13:00:25.995Z,56.88
2023-04-02T13:03:01.543Z,57.15
2023-04-02T13:05:39.551Z,57.93
2023-04-02T13:08:07.472Z,57.75
2023-04-02T13:10:36.038Z,57.11
2023-04-02T13:13:04.938Z,57.14
2023-04-02T13:15:37.098Z,58.07
2023-04-02T13:18:08.657Z,57.71
2023-04-02T13:20:38.151Z,57.22
2023-04-02T13:23:25.174Z,57.65
2023-04-02T13:25:53.183Z,58.29
2023-04-02T13:28:21.713Z,57.55
2023-04-02T13:30:50.995Z,56.55
2023-04-02T13:33:19.007Z,56.37
2023-04-02T13:35:46.792Z,55.51
2023-04-02T13:38:14.672Z,55.27
2023-04-02T13:40:42.391Z,54.69
2023-04-02T13:43:18.024Z,54.01
2023-04-02T13:45:52.567Z,53.97
2023-04-02T13:48:24.319Z,52.99
2023-04-02T13:50:53.884Z,53.24
2023-04-02T13:53:26.635Z,52.74
2023-04-02T13:55:54.436Z,52.36
2023-04-02T13:58:22.844Z,51.70
2023-04-02T14:00:52.350Z,51.84
2023-04-02T14:03:22.877Z,51.87
2023-04-02T14:05:58.217Z,51.84
2023-04-02T14:08:40.395Z,51.94
2023-04-02T14:11:23.409Z,51.98
2023-04-02T14:14:09.588Z,52.58
2023-04-02T14:16:52.420Z,53.47
2023-04-02T14:19:36.183Z,54.08
2023-04-02T14:22:17.110Z,54.49
2023-04-02T14:24:54.640Z,55.14
2023-04-02T14:27:32.540Z,54.77
2023-04-02T14:30:05.441Z,55.27
2023-04-02T14:32:44.630Z,54.92
2023-04-02T14:35:22.377Z,54.79
2023-04-02T14:38:03.999Z,54.90
2023-04-02T14:40:38.342Z,55.07
2023-04-02T14:43:12.713Z,55.30
2023-04-02T14:45:53.556Z,56.00
2023-04-02T14:48:31.690Z,55.34
2023-04-02T14:51:02.579Z,55.76
2023-04-02T14:53:37.463Z,55.51
2023-04-02T14:56:09.156Z,55.83
2023-04-02T14:58:39.931Z,55.30
2023-04-02T15:01:13.981Z,55.85
2023-04-02T15:03:49.250Z,55.61
2023-04-02T15:06:23.695Z,55.60
2023-04-02T15:09:08.432Z,56.16
2023-04-02T15:11:41.884Z,56.02
2023-04-02T15:14:18.617Z,55.15
2023-04-02T15:16:46.724Z,54.90
2023-04-02T15:19:18.009Z,55.67
2023-04-02T15:22:09.304Z,55.53
2023-04-02T15:24:47.902Z,54.77
2023-04-02T15:27:38.259Z,55.55
2023-04-02T15:30:12.999Z,54.84
2023-04-02T15:32:42.362Z,55.13
2023-04-02T15:35:23.959Z,55.71
2023-04-02T15:37:59.394Z,56.41
2023-04-02T15:40:41.030Z,56.12
2023-04-02T15:43:19.765Z,56.75
2023-04-02T15:45:56.805Z,55.96
2023-04-02T15:48:41.020Z,56.66
2023-04-02T15:51:23.905Z,56.27
2023-04-02T15:54:04.020Z,56.67
2023-04-02T15:56:42.161Z,57.29
2023-04-02T15:59:45.502Z,57.22
2023-04-02T16:02:33.839Z,56.81
2023-04-02T16:05:04.971Z,55.81
2023-04-02T16:08:00.159Z,55.57
2023-04-02T16:10:41.810Z,54.47
2023-04-02T16:13:18.967Z,53.30
2023-04-02T16:15:52.584Z,52.86
2023-04-02T16:18:31.734Z,52.56
2023-04-02T16:21:02.402Z,52.22
2023-04-02T16:23:36.146Z,50.64
2023-04-02T16:26:18.230Z,50.04
2023-04-02T16:28:55.546Z,49.99
2023-04-02T16:31:32.864Z,49.59
2023-04-02T16:34:06.361Z,49.28
2023-04-02T16:36:45.182Z,49.98
2023-04-02T16:39:29.118Z,50.42
2023-04-02T16:42:06.239Z,51.09
2023-04-02T16:44:50.343Z,51.61
2023-04-02T16:47:38.964Z,51.99
2023-04-02T16:50:18.771Z,52.53
2023-04-02T16:52:52.947Z,53.34
2023-04-02T16:55:42.258Z,52.71
2023-04-02T16:58:25.261Z,53.40
2023-04-02T17:00:58.280Z,53.42
2023-04-02T17:03:42.699Z,54.14
2023-04-02T17:06:20.486Z,53.35
2023-04-02T17:08:55.112Z,52.82
2023-04-02T17:11:26.010Z,53.18
2023-04-02T17:14:05.786Z,53.51
2023-04-02T17:16:37.711Z,53.28
2023-04-02T17:19:10.767Z,53.87
2023-04-02T17:21:40.650Z,53.29
2023-04-02T17:24:21.835Z,52.82
2023-04-02T17:26:53.852Z,52.08
2023-04-02T17:29:25.568Z,51.63
2023-04-02T17:31:54.964Z,51.18
2023-04-02T17:34:24.120Z,49.84
2023-04-02T17:36:59.941Z,50.15
2023-04-02T17:39:36.332Z,49.34
2023-04-02T17:42:15.454Z,49.82
2023-04-02T17:44:55.376Z,50.30
2023-04-02T17:47:25.692Z,50.76
2023-04-02T17:50:16.698Z,51.54
2023-04-02T17:52:51.431Z,52.08
2023-04-02T17:55:28.481Z,52.16
2023-04-02T17:58:07.814Z,52.47
2023-04-02T18:00:55.982Z,52.82
2023-04-02T18:03:40.750Z,52.74
2023-04-02T18:06:15.525Z,52.58
2023-04-02T18:08:52.117Z,53.18
2023-04-02T18:11:31.480Z,53.36
2023-04-02T18:14:06.610Z,53.32
2023-04-02T18:16:52.510Z,53.06
2023-04-02T18:19:27.467Z,53.22
2023-04-02T18:22:03.272Z,53.31
2023-04-02T18:24:52.716Z,53.41
2023-04-02T18:27:36.532Z,53.52
2023-04-02T18:30:17.380Z,53.39
2023-04-02T18:33:01.228Z,52.61
2023-04-02T18:35:33.702Z,52.65
2023-04-02T18:38:24.336Z,51.71
2023-04-02T18:41:09.017Z,51.11
2023-04-02T18:43:53.193Z,50.43
2023-04-02T18:46:33.648Z,50.63
2023-04-02T18:49:08.389Z,51.69
2023-04-02T18:51:40.010Z,51.77
2023-04-02T18:54:16.797Z,52.48
2023-04-02T18:56:44.340Z,52.47
2023-04-02T18:59:18.325Z,52.64
2023-04-02T19:01:51.320Z,52.87
2023-04-02T19:04:23.350Z,53.26
2023-04-02T19:06:55.549Z,53.39
2023-04-02T19:09:27.152Z,53.33
2023-04-02T19:11:54.863Z,53.42
2023-04-02T19:14:23.315Z,54.00
2023-04-02T19:17:01.939Z,53.69
2023-04-02T19:19:38.086Z,54.21
2023-04-02T19:22:19.934Z,54.30
2023-04-02T19:25:08.786Z,54.40
2023-04-02T19:27:51.320Z,54.68
2023-04-02T19:30:42.448Z,54.92
2023-04-02T19:33:19.640Z,54.70
2023-04-02T19:35:53.823Z,54.84
2023-04-02T19:38:40.288Z,54.14
2023-04-02T19:41:14.609Z,54.89
2023-04-02T19:43:42.559Z,55.28
2023-04-02T19:46:10.441Z,55.00
2023-04-02T19:48:45.300Z,55.21
2023-04-02T19:51:13.030Z,54.92
2023-04-02T19:53:40.736Z,54.71
2023-04-02T19:56:08.515Z,54.65
2023-04-02T19:58:37.222Z,54.53
2023-04-02T20:01:05.135Z,54.52
2023-04-02T20:03:33.024Z,55.18
2023-04-02T20:06:02.206Z,54.80
2023-04-02T20:08:30.231Z,55.00
2023-04-02T20:11:00.099Z,54.43
2023-04-02T20:13:27.901Z,54.47
2023-04-02T20:15:59.258Z,55.17
2023-04-02T20:18:26.995Z,54.97
2023-04-02T20:20:54.894Z,54.59
2023-04-02T20:23:24.118Z,54.70
2023-04-02T20:25:56.181Z,54.58
2023-04-02T20:28:25.475Z,54.94
2023-04-02T20:30:53.923Z,55.38
2023-04-02T20:33:24.048Z,55.21
2023-04-02T20:35:52.889Z,54.74
2023-04-02T20:38:20.655Z,54.85
2023-04-02T20:40:52.891Z,55.05
2023-04-02T20:43:20.743Z,54.64
2023-04-02T20:45:54.600Z,55.35
2023-04-02T20:48:23.145Z,55.09
2023-04-02T20:50:51.115Z,55.55
2023-04-02T20:53:19.392Z,55.47
2023-04-02T20:55:47.103Z,55.45
2023-04-02T20:58:17.935Z,55.30
2023-04-02T21:00:45.852Z,55.34
2023-04-02T21:03:13.660Z,55.33
2023-04-02T21:05:44.781Z,55.59
2023-04-02T21:08:12.760Z,55.35
2023-04-02T21:10:40.928Z,55.22
2023-04-02T21:13:08.639Z,54.90
2023-04-02T21:15:42.573Z,55.74
2023-04-02T21:18:10.831Z,55.07
2023-04-02T21:20:38.548Z,55.48
2023-04-02T21:23:06.273Z,55.76
2023-04-02T21:25:34.291Z,55.56
2023-04-02T21:28:02.189Z,55.51
2023-04-02T21:30:29.888Z,55.56
2023-04-02T21:32:58.973Z,55.79
2023-04-02T21:35:26.735Z,55.21
2023-04-02T21:37:54.420Z,55.57
2023-04-02T21:40:22.286Z,55.99
2023-04-02T21:42:49.964Z,56.08
2023-04-02T21:45:17.840Z,55.67
2023-04-02T21:47:45.526Z,55.32
2023-04-02T21:50:14.634Z,55.68
2023-04-02T21:52:42.629Z,55.27
2023-04-02T21:55:10.824Z,55.14
2023-04-02T21:57:38.615Z,55.61
2023-04-02T22:00:12.149Z,55.50
2023-04-02T22:02:39.955Z,55.30
2023-04-02T22:05:08.733Z,55.49
2023-04-02T22:07:37.806Z,55.56
2023-04-02T22:10:06.076Z,55.83
2023-04-02T22:12:33.767Z,56.09
2023-04-02T22:15:01.490Z,55.63
2023-04-02T22:17:29.217Z,55.44
2023-04-02T22:19:56.934Z,55.68
2023-04-02T22:22:25.234Z,56.47
2023-04-02T22:24:56.176Z,55.97
2023-04-02T22:27:23.939Z,56.11
2023-04-02T22:29:51.640Z,56.20
2023-04-02T22:32:19.336Z,56.14
2023-04-02T22:34:46.997Z,55.52
2023-04-02T22:37:14.689Z,56.07
2023-04-02T22:39:42.380Z,55.83
2023-04-02T22:42:11.437Z,56.27
2023-04-02T22:44:39.164Z,56.18
2023-04-02T22:47:06.893Z,56.74
2023-04-02T22:49:34.600Z,55.65
2023-04-02T22:52:05.642Z,56.26
2023-04-02T22:54:33.363Z,56.15
2023-04-02T22:57:01.193Z,56.42
2023-04-02T22:59:30.353Z,55.90
2023-04-02T23:01:58.094Z,56.00
2023-04-02T23:04:25.966Z,55.54
2023-04-02T23:06:53.644Z,56.46
2023-04-02T23:09:21.428Z,55.91
2023-04-02T23:11:49.152Z,56.66
2023-04-02T23:14:16.865Z,55.99
2023-04-02T23:16:45.926Z,56.62
2023-04-02T23:19:13.663Z,56.67
2023-04-02T23:21:41.359Z,56.27
2023-04-02T23:24:09.023Z,56.59
2023-04-02T23:26:36.769Z,56.38
2023-04-02T23:29:06.316Z,55.99
2023-04-02T23:31:34.162Z,55.69
2023-04-02T23:34:03.297Z,56.09
2023-04-02T23:36:33.070Z,55.95
2023-04-02T23:39:04.032Z,56.21
2023-04-02T23:41:32.512Z,56.73
2023-04-02T23:44:00.437Z,56.10
2023-04-02T23:46:29.471Z,56.88
2023-04-02T23:48:57.989Z,56.59
2023-04-02T23:51:27.578Z,55.93
2023-04-02T23:53:56.517Z,56.17
2023-04-02T23:56:24.904Z,56.56
2023-04-02T23:58:52.900Z,56.21
